首页
METAR-TAF:

METAR-TAF

机场 :

Marianna Municipal Airport

Marianna, 佛罗里达州, 美国

纬度: 30-50-12N, 经度: 085-11-01W, 海拔: 34米

当前天气观测

该预报发布于27分钟前的09:53 UTC
风速8节,风向东转东北
温度 23°C
湿度 83%
气压 1013 hPa
能見度: 14.5公里
多云层高于1900英尺
阴天层高于2300英尺
小雨

METAR: KMAI 260953Z AUTO 07008KT 9SM -RA BKN019 OVC023 23/20 A2990 RMK AO2 RAB51 SLP122 P0000 T02280200 $

时间: 05:20 (10:20 UTC)


TAF: 丢失

超过4000个机场的气象观测和天气预报(METAR&TAF报告)。

可查询的气象台以黄色和红色小点在地图上表示。

将鼠标移到小点上方,可查看气象台名称。

然后点击查看天气观测和预报。

如需切换地图:点击带黑十字的绿色按钮放大地图;点击带横线的绿色按钮缩小地图;或者点击绿色箭头查看邻近地区的地图。


METAR-TAF: